Warning: Javascript must be enabled to use all the features on this page!


Page Loading - Please Wait...

Click to hideNews Bulletins
Click to hide state-specific text


USGS 08195000 Frio Rv at Concan, TX

PROVISIONAL DATA SUBJECT TO REVISION

Click to hidestation-specific text
Funding for this site is provided by the cooperators / programs below:
Click to go to the Edwards Aquifer Authority web page

Edwards Aquifer Authority

Click to go to the Cooperative Water Program web page

Cooperative Water Program

 

Rainfall Disclaimer


retransmission, forecasts and summary of this location by the National Weather Service
Retransmission, forecasts and summary by the National Weather Service

National Weather Service provided floatability levels for recreational users at several locations throughout Texas.

This station managed by the San Antonio Field Unit.

Available Parameters Available Period
All 6 Available Parameters for this site
  
00065 Gage height 2007-10-01  2016-07-01
00060 Discharge 2007-10-01  2016-07-01
00045 Precipitation 2016-03-03  2016-07-01
00095 Specific cond at 25C 2013-07-02  2016-07-01
00010 Temperature, water 2013-07-25  2016-07-01
99133 NO3+NO2,water,insitu 2015-09-24  2016-07-01

Graph
Graph w/ stats
Graph w/o stats
Graph w/ (up to 3) parms
Table
Tab-separated
Days  (2)
 

  -- or --
Begin date
 

End date
 

Summary of all available data for this site
Instantaneous-data availability statement






Date / Time




Gage
height,
feet,




Dis-
charge,
ft3/s,



Precip-
itation
total,
inches,
Specif-
ic
conduc-
tance,
wat unf
uS/cm @
25 degC,



Temper-
ature,
water,
deg C,

Nitrate
+
nitrite
water,
in situ
mg/L as,
06/29/2016 00:00 CDT4.09P  184P  0.00P  469P  27.0P  0.643P  
06/29/2016 00:15 CDT4.08P  180P  0.00P  469P  26.9P     
06/29/2016 00:30 CDT4.09P  184P  0.00P  470P  26.8P     
06/29/2016 00:45 CDT4.09P  184P  0.00P  470P  26.8P     
06/29/2016 01:00 CDT4.09P  184P  0.00P  470P  26.7P  0.647P  
06/29/2016 01:15 CDT4.09P  184P  0.00P  471P  26.7P     
06/29/2016 01:30 CDT4.09P  184P  0.00P  471P  26.6P     
06/29/2016 01:45 CDT4.09P  184P  0.00P  472P  26.6P     
06/29/2016 02:00 CDT4.10P  188P  0.00P  473P  26.6P  0.653P  
06/29/2016 02:15 CDT4.10P  188P  0.00P  473P  26.6P     
06/29/2016 02:30 CDT4.11P  192P  0.00P  474P  26.5P     
06/29/2016 02:45 CDT4.12P  196P  0.00P  475P  26.5P     
06/29/2016 03:00 CDT4.13P  201P  0.00P  475P  26.5P  0.653P  
06/29/2016 03:15 CDT4.14P  205P  0.00P  476P  26.5P     
06/29/2016 03:30 CDT4.15P  209P  0.00P  477P  26.4P     
06/29/2016 03:45 CDT4.16P  214P  0.00P  477P  26.4P     
06/29/2016 04:00 CDT4.17P  218P  0.00P  478P  26.4P  0.651P  
06/29/2016 04:15 CDT4.18P  223P  0.00P  478P  26.3P     
06/29/2016 04:30 CDT4.19P  227P  0.00P  478P  26.2P     
06/29/2016 04:45 CDT4.20P  232P  0.00P  478P  26.2P     
06/29/2016 05:00 CDT4.22P  241P  0.00P  478P  26.1P  0.652P  
06/29/2016 05:15 CDT4.23P  246P  0.00P  478P  26.0P     
06/29/2016 05:30 CDT4.23P  246P  0.00P  478P  26.0P     
06/29/2016 05:45 CDT4.24P  251P  0.00P  478P  25.9P     
06/29/2016 06:00 CDT4.24P  251P  0.00P  478P  25.8P  0.653P  
06/29/2016 06:15 CDT4.24P  251P  0.00P  472P  25.7P     
06/29/2016 06:30 CDT4.24P  251P  0.00P  462P  25.7P     
06/29/2016 06:45 CDT4.23P  246P  0.00P  460P  25.6P     
06/29/2016 07:00 CDT4.23P  246P  0.00P  459P  25.6P  0.657P  
06/29/2016 07:15 CDT4.22P  241P  0.00P  459P  25.5P     
06/29/2016 07:30 CDT4.22P  241P  0.00P  459P  25.5P     
06/29/2016 07:45 CDT4.22P  241P  0.00P  460P  25.5P     
06/29/2016 08:00 CDT4.21P  236P  0.01P  460P  25.5P  0.659P  
06/29/2016 08:15 CDT4.21P  236P  0.00P  461P  25.4P     
06/29/2016 08:30 CDT4.20P  232P  0.00P  460P  25.4P     
06/29/2016 08:45 CDT4.20P  232P  0.00P  460P  25.5P     
06/29/2016 09:00 CDT4.20P  232P  0.00P  460P  25.5P  0.658P  
06/29/2016 09:15 CDT4.19P  227P  0.00P  460P  25.6P     
06/29/2016 09:30 CDT4.19P  227P  0.00P  460P  25.6P     
06/29/2016 09:45 CDT4.19P  227P  0.00P  460P  25.7P     
06/29/2016 10:00 CDT4.18P  223P  0.00P  460P  25.7P  0.657P  
06/29/2016 10:15 CDT4.18P  223P  0.00P  460P  25.8P     
06/29/2016 10:30 CDT4.17P  218P  0.00P  459P  25.9P     
06/29/2016 10:45 CDT4.17P  218P  0.00P  458P  26.0P     
06/29/2016 11:00 CDT4.17P  218P  0.00P  458P  26.1P  0.654P  
06/29/2016 11:15 CDT4.17P  218P  0.00P  458P  26.2P     
06/29/2016 11:30 CDT4.16P  214P  0.00P  457P  26.4P     
06/29/2016 11:45 CDT4.16P  214P  0.00P  457P  26.5P     
06/29/2016 12:00 CDT4.16P  214P  0.00P  456P  26.7P  0.651P  
06/29/2016 12:15 CDT4.15P  209P  0.00P  456P  26.8P     
06/29/2016 12:30 CDT4.15P  209P  0.00P  456P  27.0P     
06/29/2016 12:45 CDT4.14P  205P  0.00P  455P  27.1P     
06/29/2016 13:00 CDT4.14P  205P  0.00P  455P  27.3P  0.648P  
06/29/2016 13:15 CDT4.14P  205P  0.00P  456P  27.4P     
06/29/2016 13:30 CDT4.14P  205P  0.00P  455P  27.6P     
06/29/2016 13:45 CDT4.13P  201P  0.00P  455P  27.7P     
06/29/2016 14:00 CDT4.13P  201P  0.00P  455P  27.8P  0.643P  
06/29/2016 14:15 CDT4.13P  201P  0.00P  455P  27.9P     
06/29/2016 14:30 CDT4.13P  201P  0.00P  454P  28.0P     
06/29/2016 14:45 CDT4.12P  196P  0.00P  453P  28.1P     
06/29/2016 15:00 CDT4.12P  196P  0.00P  453P  28.2P  0.640P  
06/29/2016 15:15 CDT4.11P  192P  0.00P  453P  28.4P     
06/29/2016 15:30 CDT4.12P  196P  0.00P  452P  28.5P     
06/29/2016 15:45 CDT4.12P  196P  0.00P  451P  28.6P     
06/29/2016 16:00 CDT4.12P  196P  0.00P  452P  28.8P  0.638P  
06/29/2016 16:15 CDT4.11P  192P  0.00P  452P  28.8P     
06/29/2016 16:30 CDT4.11P  192P  0.00P  452P  28.8P     
06/29/2016 16:45 CDT4.10P  188P  0.00P  451P  28.9P     
06/29/2016 17:00 CDT4.11P  192P  0.00P  451P  28.9P  0.634P  
06/29/2016 17:15 CDT4.10P  188P  0.00P  451P  28.9P     
06/29/2016 17:30 CDT4.10P  188P  0.00P  452P  28.9P     
06/29/2016 17:45 CDT4.10P  188P  0.00P  453P  28.9P     
06/29/2016 18:00 CDT4.10P  188P  0.00P  453P  28.9P  0.630P  
06/29/2016 18:15 CDT4.09P  184P  0.00P  453P  28.9P     
06/29/2016 18:30 CDT4.09P  184P  0.00P  452P  28.9P     
06/29/2016 18:45 CDT4.09P  184P  0.00P  451P  28.9P     
06/29/2016 19:00 CDT4.09P  184P  0.00P  451P  28.9P  0.625P  
06/29/2016 19:15 CDT4.08P  180P  0.00P  449P  28.9P     
06/29/2016 19:30 CDT4.08P  180P  0.00P  448P  28.8P     
06/29/2016 19:45 CDT4.08P  180P  0.00P  448P  28.8P     
06/29/2016 20:00 CDT4.08P  180P  0.00P  448P  28.7P  0.621P  
06/29/2016 20:15 CDT4.08P  180P  0.00P  448P  28.6P     
06/29/2016 20:30 CDT4.08P  180P  0.00P  448P  28.5P     
06/29/2016 20:45 CDT4.07P  176P  0.00P  448P  28.5P     
06/29/2016 21:00 CDT4.08P  180P  0.00P  449P  28.4P  0.613P  
06/29/2016 21:15 CDT4.07P  176P  0.00P  450P  28.3P     
06/29/2016 21:30 CDT4.07P  176P  0.00P  451P  28.2P     
06/29/2016 21:45 CDT4.07P  176P  0.00P  451P  28.1P     
06/29/2016 22:00 CDT4.07P  176P  0.00P  452P  28.0P  0.608P  
06/29/2016 22:15 CDT4.07P  176P  0.00P  453P  27.9P     
06/29/2016 22:30 CDT4.07P  176P  0.00P  453P  27.8P     
06/29/2016 22:45 CDT4.06P  172P  0.00P  454P  27.8P     
06/29/2016 23:00 CDT4.06P  172P  0.00P  455P  27.7P  0.603P  
06/29/2016 23:15 CDT4.06P  172P  0.00P  455P  27.6P     
06/29/2016 23:30 CDT4.06P  172P  0.00P  456P  27.6P     
06/29/2016 23:45 CDT4.06P  172P  0.00P  457P  27.5P     
06/30/2016 00:00 CDT4.06P  172P  0.00P  457P  27.4P  0.602P  
06/30/2016 00:15 CDT4.06P  172P  0.00P  458P  27.4P     
06/30/2016 00:30 CDT4.06P  172P  0.00P  458P  27.3P     
06/30/2016 00:45 CDT4.06P  172P  0.00P  459P  27.2P     
06/30/2016 01:00 CDT4.06P  172P  0.00P  460P  27.2P  0.602P  
06/30/2016 01:15 CDT4.06P  172P  0.00P  460P  27.1P     
06/30/2016 01:30 CDT4.06P  172P  0.00P  461P  27.1P     
06/30/2016 01:45 CDT4.06P  172P  0.00P  461P  27.0P     
06/30/2016 02:00 CDT4.06P  172P  0.00P  461P  27.0P  0.604P  
06/30/2016 02:15 CDT4.05P  168P  0.00P  462P  27.0P     
06/30/2016 02:30 CDT4.05P  168P  0.00P  462P  26.9P     
06/30/2016 02:45 CDT4.05P  168P  0.00P  463P  26.8P     
06/30/2016 03:00 CDT4.05P  168P  0.00P  463P  26.8P  0.607P  
06/30/2016 03:15 CDT4.05P  168P  0.00P  464P  26.7P     
06/30/2016 03:30 CDT4.05P  168P  0.00P  464P  26.7P     
06/30/2016 03:45 CDT4.05P  168P  0.00P  464P  26.6P     
06/30/2016 04:00 CDT4.05P  168P  0.00P  465P  26.6P  0.609P  
06/30/2016 04:15 CDT4.05P  168P  0.00P  465P  26.5P     
06/30/2016 04:30 CDT4.05P  168P  0.00P  465P  26.5P     
06/30/2016 04:45 CDT4.05P  168P  0.00P  466P  26.4P     
06/30/2016 05:00 CDT4.05P  168P  0.00P  466P  26.4P  0.612P  
06/30/2016 05:15 CDT4.05P  168P  0.00P  466P  26.3P     
06/30/2016 05:30 CDT4.05P  168P  0.00P  467P  26.2P     
06/30/2016 05:45 CDT4.04P  165P  0.00P  467P  26.2P     
06/30/2016 06:00 CDT4.04P  165P  0.00P  467P  26.1P  0.617P  
06/30/2016 06:15 CDT4.04P  165P  0.00P  467P  26.1P     
06/30/2016 06:30 CDT4.04P  165P  0.00P  461P  26.0P     
06/30/2016 06:45 CDT4.04P  165P  0.00P  460P  25.9P     
06/30/2016 07:00 CDT4.04P  165P  0.00P  460P  25.9P  0.619P  
06/30/2016 07:15 CDT4.04P  165P  0.00P  461P  25.8P     
06/30/2016 07:30 CDT4.04P  165P  0.00P  461P  25.7P     
06/30/2016 07:45 CDT4.04P  165P  0.00P  461P  25.7P     
06/30/2016 08:00 CDT4.04P  165P  0.00P  461P  25.6P  0.622P  
06/30/2016 08:15 CDT4.05P  168P  0.00P  461P  25.6P     
06/30/2016 08:30 CDT4.04P  165P  0.00P  461P  25.6P     
06/30/2016 08:45 CDT4.04P  165P  0.00P  461P  25.5P     
06/30/2016 09:00 CDT4.04P  165P  0.00P  461P  25.5P  0.623P  
06/30/2016 09:15 CDT4.04P  165P  0.00P  461P  25.5P     
06/30/2016 09:30 CDT4.04P  165P  0.00P  461P  25.5P     
06/30/2016 09:45 CDT4.04P  165P  0.00P  461P  25.6P     
06/30/2016 10:00 CDT4.04P  165P  0.00P  461P  25.6P  0.622P  
06/30/2016 10:15 CDT4.04P  165P  0.00P  461P  25.7P     
06/30/2016 10:30 CDT4.04P  165P  0.00P  460P  25.8P     
06/30/2016 10:45 CDT4.04P  165P  0.00P  460P  25.9P     
06/30/2016 11:00 CDT4.04P  165P  0.00P  460P  26.0P  0.619P  
06/30/2016 11:15 CDT4.04P  165P  0.00P  460P  26.1P     
06/30/2016 11:30 CDT4.04P  165P  0.00P  460P  26.3P     
06/30/2016 11:45 CDT4.03P  161P  0.00P  459P  26.4P     
06/30/2016 12:00 CDT4.04P  165P  0.00P  460P  26.5P  0.617P  
06/30/2016 12:15 CDT4.04P  165P  0.00P  460P  26.6P     
06/30/2016 12:30 CDT4.04P  165P  0.00P  460P  26.8P     
06/30/2016 12:45 CDT4.03P  161P  0.00P  459P  26.9P     
06/30/2016 13:00 CDT4.03P  161P  0.00P  459P  27.1P  0.612P  
06/30/2016 13:15 CDT4.03P  161P  0.00P  459P  27.2P     
06/30/2016 13:30 CDT4.03P  161P  0.00P  459P  27.4P     
06/30/2016 13:45 CDT4.03P  161P  0.00P  459P  27.5P     
06/30/2016 14:00 CDT4.03P  161P  0.00P  459P  27.6P  0.609P  
06/30/2016 14:15 CDT4.03P  161P  0.00P  459P  27.7P     
06/30/2016 14:30 CDT4.03P  161P  0.00P  459P  27.9P     
06/30/2016 14:45 CDT4.03P  161P  0.00P  458P  27.9P     
06/30/2016 15:00 CDT4.03P  161P  0.00P  458P  28.1P  0.607P  
06/30/2016 15:15 CDT4.03P  161P  0.00P  458P  28.2P     
06/30/2016 15:30 CDT4.03P  161P  0.00P  458P  28.3P     
06/30/2016 15:45 CDT4.03P  161P  0.00P  459P  28.5P     
06/30/2016 16:00 CDT4.03P  161P  0.00P  457P  28.6P  0.605P  
06/30/2016 16:15 CDT4.03P  161P  0.00P  457P  28.7P     
06/30/2016 16:30 CDT4.02P  157P  0.00P  456P  28.9P     
06/30/2016 16:45 CDT4.02P  157P  0.00P  456P  29.0P     
06/30/2016 17:00 CDT4.02P  157P  0.00P  455P  29.1P  0.601P  
06/30/2016 17:15 CDT4.02P  157P  0.00P  456P  29.2P     
06/30/2016 17:30 CDT4.02P  157P  0.00P  456P  29.3P     
06/30/2016 17:45 CDT4.02P  157P  0.00P  456P  29.4P     
06/30/2016 18:00 CDT4.03P  161P  0.00P  456P  29.4P  0.601P  
06/30/2016 18:15 CDT4.02P  157P  0.00P  457P  29.4P     
06/30/2016 18:30 CDT4.02P  157P  0.00P  456P  29.5P     
06/30/2016 18:45 CDT4.02P  157P  0.00P  455P  29.5P     
06/30/2016 19:00 CDT4.02P  157P  0.00P  456P  29.5P  0.601P  
06/30/2016 19:15 CDT4.02P  157P  0.00P  457P  29.4P     
06/30/2016 19:30 CDT4.02P  157P  0.00P  457P  29.4P     
06/30/2016 19:45 CDT4.02P  157P  0.00P  462P  29.3P     
06/30/2016 20:00 CDT4.02P  157P  0.00P  464P  29.2P  0.606P  
06/30/2016 20:15 CDT4.02P  157P  0.00P  464P  29.1P     
06/30/2016 20:30 CDT4.02P  157P  0.00P  464P  29.0P     
06/30/2016 20:45 CDT4.02P  157P  0.00P  464P  28.9P     
06/30/2016 21:00 CDT4.02P  157P  0.00P  464P  28.9P  0.610P  
06/30/2016 21:15 CDT4.02P  157P  0.00P  465P  28.8P     
06/30/2016 21:30 CDT4.02P  157P  0.00P  466P  28.7P     
06/30/2016 21:45 CDT4.02P  157P  0.00P  467P  28.6P     
06/30/2016 22:00 CDT4.01P  154P  0.00P  468P  28.6P  0.612P  
06/30/2016 22:15 CDT4.02P  157P  0.00P  468P  28.5P     
06/30/2016 22:30 CDT4.01P  154P  0.00P  469P  28.4P     
06/30/2016 22:45 CDT4.01P  154P  0.00P  470P  28.3P     
06/30/2016 23:00 CDT4.02P  157P  0.00P  471P  28.2P  0.613P  
06/30/2016 23:15 CDT4.01P  154P  0.00P  471P  28.1P     
06/30/2016 23:30 CDT4.02P  157P  0.00P  472P  28.0P     
06/30/2016 23:45 CDT4.02P  157P  0.00P  473P  27.9P     
07/01/2016 00:00 CDT4.01P  154P  0.00P  473P  27.8P  0.616P  
07/01/2016 00:15 CDT4.03P  161P  0.00P  474P  27.7P     
07/01/2016 00:30 CDT4.02P  157P  0.00P  474P  27.6P     
07/01/2016 00:45 CDT4.02P  157P  0.00P  474P  27.6P     
07/01/2016 01:00 CDT4.02P  157P  0.00P  475P  27.5P  0.618P  
07/01/2016 01:15 CDT4.01P  154P  0.00P  475P  27.4P     
07/01/2016 01:30 CDT4.01P  154P  0.00P  476P  27.4P     
07/01/2016 01:45 CDT4.02P  157P  0.00P  476P  27.3P     
07/01/2016 02:00 CDT4.01P  154P  0.00P  477P  27.3P  0.621P  
07/01/2016 02:15 CDT4.02P  157P  0.00P  477P  27.2P     
07/01/2016 02:30 CDT4.01P  154P  0.00P  477P  27.2P     

Explanation
  P  Provisional data subject to revision.